createdAt,value
2018-01-24T00:00:51.973Z,9.38
2018-01-24T00:01:51.953Z,9.41
2018-01-24T00:02:51.935Z,9.39
2018-01-24T00:03:51.919Z,9.44
2018-01-24T00:04:51.875Z,9.52
2018-01-24T00:05:51.841Z,9.47
2018-01-24T00:06:51.820Z,9.42
2018-01-24T00:07:51.803Z,9.44
2018-01-24T00:08:51.777Z,9.41
2018-01-24T00:09:51.764Z,9.44
2018-01-24T00:10:51.725Z,9.44
2018-01-24T00:11:51.700Z,9.41
2018-01-24T00:12:51.666Z,9.39
2018-01-24T00:13:51.636Z,9.39
2018-01-24T00:14:51.620Z,9.39
2018-01-24T00:15:51.590Z,9.47
2018-01-24T00:16:51.599Z,9.38
2018-01-24T00:17:51.538Z,9.47
2018-01-24T00:18:51.515Z,9.38
2018-01-24T00:19:51.491Z,9.45
2018-01-24T00:20:51.472Z,9.45
2018-01-24T00:21:51.435Z,9.50
2018-01-24T00:22:51.409Z,9.55
2018-01-24T00:23:51.391Z,9.52
2018-01-24T00:24:51.357Z,9.57
2018-01-24T00:25:51.331Z,9.48
2018-01-24T00:26:51.321Z,9.57
2018-01-24T00:27:51.279Z,9.53
2018-01-24T00:28:51.263Z,9.53
2018-01-24T00:29:51.235Z,9.52
2018-01-24T00:30:51.216Z,9.52
2018-01-24T00:31:51.184Z,9.55
2018-01-24T00:32:51.173Z,9.55
2018-01-24T00:33:51.124Z,9.56
2018-01-24T00:34:51.113Z,9.55
2018-01-24T00:35:51.080Z,9.59
2018-01-24T00:36:51.071Z,9.63
2018-01-24T00:37:51.021Z,9.59
2018-01-24T00:38:50.995Z,9.59
2018-01-24T00:39:50.992Z,9.55
2018-01-24T00:40:50.950Z,9.56
2018-01-24T00:41:50.944Z,9.63
2018-01-24T00:42:50.912Z,9.62
2018-01-24T00:43:50.881Z,9.56
2018-01-24T00:44:50.856Z,9.55
2018-01-24T00:45:50.819Z,9.56
2018-01-24T00:46:50.800Z,9.60
2018-01-24T00:47:50.769Z,9.71
2018-01-24T00:48:50.739Z,9.67
2018-01-24T00:49:50.721Z,9.74
2018-01-24T00:50:50.688Z,9.77
2018-01-24T00:51:50.684Z,9.75
2018-01-24T00:52:50.640Z,9.78
2018-01-24T00:53:50.616Z,9.75
2018-01-24T00:54:50.597Z,9.74
2018-01-24T00:55:50.564Z,9.71
2018-01-24T00:56:50.531Z,9.72
2018-01-24T00:57:50.523Z,9.71
2018-01-24T00:58:50.483Z,9.74
2018-01-24T00:59:50.472Z,9.70
2018-01-24T01:00:50.444Z,9.71
2018-01-24T01:01:50.416Z,9.70
2018-01-24T01:02:50.382Z,9.74
2018-01-24T01:03:50.377Z,9.82
2018-01-24T01:04:50.337Z,9.70
2018-01-24T01:05:50.309Z,9.71
2018-01-24T01:06:50.283Z,9.75
2018-01-24T01:07:50.271Z,9.70
2018-01-24T01:08:50.232Z,9.71
2018-01-24T01:09:50.237Z,9.71
2018-01-24T01:10:50.182Z,9.77
2018-01-24T01:11:50.158Z,9.84
2018-01-24T01:12:50.138Z,9.71
2018-01-24T01:13:50.108Z,9.81
2018-01-24T01:14:50.085Z,9.71
2018-01-24T01:15:50.056Z,9.70
2018-01-24T01:16:50.029Z,9.80
2018-01-24T01:17:49.997Z,9.80
2018-01-24T01:18:49.990Z,9.82
2018-01-24T01:19:49.960Z,9.80
2018-01-24T01:20:49.935Z,9.85
2018-01-24T01:21:49.893Z,9.80
2018-01-24T01:22:49.910Z,9.93
2018-01-24T01:23:49.847Z,9.92
2018-01-24T01:24:49.823Z,9.89
2018-01-24T01:25:49.804Z,9.98
2018-01-24T01:26:49.773Z,9.89
2018-01-24T01:27:49.756Z,9.96
2018-01-24T01:28:49.744Z,9.93
2018-01-24T01:29:49.702Z,9.93
2018-01-24T01:30:49.670Z,10.03
2018-01-24T01:31:49.657Z,10.00
2018-01-24T01:32:49.618Z,10.05
2018-01-24T01:33:49.664Z,9.99
2018-01-24T01:34:49.593Z,10.00
2018-01-24T01:35:49.542Z,9.99
2018-01-24T01:36:49.512Z,10.05
2018-01-24T01:37:49.511Z,10.10
2018-01-24T01:38:49.484Z,10.10
2018-01-24T01:39:49.459Z,10.07
2018-01-24T01:40:49.423Z,10.07
2018-01-24T01:41:49.396Z,10.07
2018-01-24T01:42:49.370Z,10.03
2018-01-24T01:43:49.354Z,9.99
2018-01-24T01:44:49.320Z,10.10
2018-01-24T01:45:49.286Z,10.11
2018-01-24T01:46:49.270Z,10.13
2018-01-24T01:47:49.266Z,10.11
2018-01-24T01:48:49.232Z,10.11
2018-01-24T01:49:49.192Z,10.18
2018-01-24T01:50:49.159Z,10.18
2018-01-24T01:51:49.142Z,10.13
2018-01-24T01:52:49.121Z,10.11
2018-01-24T01:53:49.084Z,10.18
2018-01-24T01:54:49.067Z,10.17
2018-01-24T01:55:49.061Z,10.29
2018-01-24T01:56:49.029Z,10.20
2018-01-24T01:57:48.993Z,10.25
2018-01-24T01:58:48.967Z,10.31
2018-01-24T01:59:48.958Z,10.39
2018-01-24T02:00:48.922Z,10.33
2018-01-24T02:01:48.896Z,10.31
2018-01-24T02:02:48.869Z,10.36
2018-01-24T02:03:48.836Z,10.33
2018-01-24T02:04:48.815Z,10.39
2018-01-24T02:05:48.794Z,10.41
2018-01-24T02:06:48.769Z,10.41
2018-01-24T02:07:48.743Z,10.46
2018-01-24T02:08:48.713Z,10.55
2018-01-24T02:09:48.692Z,10.58
2018-01-24T02:10:48.669Z,10.55
2018-01-24T02:11:48.642Z,10.63
2018-01-24T02:12:48.609Z,10.61
2018-01-24T02:13:48.593Z,10.61
2018-01-24T02:14:48.574Z,10.66
2018-01-24T02:15:48.554Z,10.73
2018-01-24T02:16:48.521Z,10.73
2018-01-24T02:17:48.502Z,10.73
2018-01-24T02:18:48.467Z,10.67
2018-01-24T02:19:48.458Z,10.79
2018-01-24T02:20:48.436Z,10.75
2018-01-24T02:21:48.411Z,10.67
2018-01-24T02:22:48.364Z,10.73
2018-01-24T02:23:48.341Z,10.76
2018-01-24T02:24:48.332Z,10.75
2018-01-24T02:25:48.300Z,10.84
2018-01-24T02:26:48.307Z,10.85
2018-01-24T02:27:48.250Z,10.83
2018-01-24T02:28:48.218Z,10.84
2018-01-24T02:29:48.203Z,10.88
2018-01-24T02:30:48.182Z,10.85
2018-01-24T02:31:48.147Z,10.87
2018-01-24T02:32:48.122Z,10.80
2018-01-24T02:33:48.097Z,10.87
2018-01-24T02:34:48.079Z,10.90
2018-01-24T02:35:48.060Z,10.87
2018-01-24T02:36:48.028Z,10.85
2018-01-24T02:37:48.014Z,10.87
2018-01-24T02:38:47.973Z,10.94
2018-01-24T02:39:47.960Z,10.80
2018-01-24T02:40:47.930Z,11.05
2018-01-24T02:41:47.968Z,10.88
2018-01-24T02:42:47.879Z,10.95
2018-01-24T02:43:47.862Z,10.95
2018-01-24T02:44:47.864Z,10.91
2018-01-24T02:45:47.798Z,10.98
2018-01-24T02:46:47.787Z,11.00
2018-01-24T02:47:47.749Z,10.98
2018-01-24T02:48:47.731Z,11.02
2018-01-24T02:49:47.702Z,10.95
2018-01-24T02:50:47.672Z,10.95
2018-01-24T02:51:47.646Z,11.00
2018-01-24T02:52:47.634Z,10.92
2018-01-24T02:53:47.598Z,10.97
2018-01-24T02:54:47.598Z,11.03
2018-01-24T02:55:47.553Z,11.03
2018-01-24T02:56:47.530Z,11.08
2018-01-24T02:57:47.518Z,10.97
2018-01-24T02:58:47.486Z,11.02
2018-01-24T02:59:47.466Z,11.00
2018-01-24T03:00:47.446Z,11.02
2018-01-24T03:01:47.413Z,11.10
2018-01-24T03:02:47.403Z,11.09
2018-01-24T03:03:47.384Z,11.10
2018-01-24T03:04:47.334Z,11.05
2018-01-24T03:05:47.327Z,11.05
2018-01-24T03:06:47.281Z,11.00
2018-01-24T03:07:47.263Z,11.08
2018-01-24T03:08:47.241Z,11.05
2018-01-24T03:09:47.213Z,11.05
2018-01-24T03:10:47.194Z,10.98
2018-01-24T03:11:47.173Z,11.13
2018-01-24T03:12:47.142Z,11.10
2018-01-24T03:13:47.117Z,11.09
2018-01-24T03:14:47.098Z,11.08
2018-01-24T03:15:47.064Z,11.09
2018-01-24T03:16:47.041Z,11.03
2018-01-24T03:17:47.015Z,11.09
2018-01-24T03:18:47.021Z,11.12
2018-01-24T03:19:46.964Z,11.09
2018-01-24T03:20:46.940Z,11.18
2018-01-24T03:21:46.914Z,11.02
2018-01-24T03:22:46.909Z,11.10
2018-01-24T03:23:46.881Z,11.18
2018-01-24T03:24:46.860Z,11.09
2018-01-24T03:25:46.822Z,11.13
2018-01-24T03:26:46.828Z,11.09
2018-01-24T03:27:46.788Z,11.13
2018-01-24T03:28:46.755Z,11.15
2018-01-24T03:29:46.721Z,11.16
2018-01-24T03:30:46.726Z,11.18
2018-01-24T03:31:46.680Z,11.13
2018-01-24T03:32:46.649Z,11.16
2018-01-24T03:33:46.630Z,11.16
2018-01-24T03:34:46.613Z,11.18
2018-01-24T03:35:46.585Z,11.28
2018-01-24T03:36:46.575Z,11.16
2018-01-24T03:37:46.542Z,11.16
2018-01-24T03:38:46.499Z,11.13
2018-01-24T03:39:46.488Z,11.15
2018-01-24T03:40:46.499Z,11.18
2018-01-24T03:41:46.433Z,11.12
2018-01-24T03:42:46.403Z,11.20
2018-01-24T03:43:46.399Z,11.16
2018-01-24T03:44:46.359Z,11.23
2018-01-24T03:45:46.329Z,11.24
2018-01-24T03:46:46.312Z,11.20
2018-01-24T03:47:46.302Z,11.18
2018-01-24T03:48:46.272Z,11.31
2018-01-24T03:49:46.232Z,11.34
2018-01-24T03:50:46.221Z,11.26
2018-01-24T03:51:46.191Z,11.31
2018-01-24T03:52:46.178Z,11.28
2018-01-24T03:53:46.140Z,11.28
2018-01-24T03:54:46.133Z,11.28
2018-01-24T03:55:46.100Z,11.24
2018-01-24T03:56:46.087Z,11.27
2018-01-24T03:57:46.050Z,11.28
2018-01-24T03:58:46.011Z,11.31
2018-01-24T03:59:46.010Z,11.33
2018-01-24T04:00:45.968Z,11.30
2018-01-24T04:01:45.947Z,11.24
2018-01-24T04:02:45.922Z,11.33
2018-01-24T04:03:45.913Z,11.33
2018-01-24T04:04:45.874Z,11.33
2018-01-24T04:05:45.855Z,11.27
2018-01-24T04:06:45.822Z,11.31
2018-01-24T04:07:45.810Z,11.26
2018-01-24T04:08:45.780Z,11.34
2018-01-24T04:09:45.756Z,11.31
2018-01-24T04:10:45.725Z,11.33
2018-01-24T04:11:45.705Z,11.30
2018-01-24T04:12:45.678Z,11.31
2018-01-24T04:13:45.652Z,11.31
2018-01-24T04:14:45.637Z,11.30
2018-01-24T04:15:45.605Z,11.33
2018-01-24T04:16:45.579Z,11.33
2018-01-24T04:17:45.577Z,11.35
2018-01-24T04:18:45.539Z,11.35
2018-01-24T04:19:45.509Z,11.34
2018-01-24T04:20:45.485Z,11.42
2018-01-24T04:21:45.462Z,11.33
2018-01-24T04:22:45.435Z,11.34
2018-01-24T04:23:45.417Z,11.34
2018-01-24T04:24:45.390Z,11.33
2018-01-24T04:25:45.361Z,11.34
2018-01-24T04:26:45.348Z,11.34
2018-01-24T04:27:45.318Z,11.30
2018-01-24T04:28:45.303Z,11.35
2018-01-24T04:29:45.260Z,11.33
2018-01-24T04:30:45.246Z,11.31
2018-01-24T04:31:45.226Z,11.33
2018-01-24T04:32:45.197Z,11.31
2018-01-24T04:33:45.168Z,11.35
2018-01-24T04:34:45.142Z,11.31
2018-01-24T04:35:45.141Z,11.33
2018-01-24T04:36:45.104Z,11.27
2018-01-24T04:37:45.067Z,11.30
2018-01-24T04:38:45.050Z,11.33
2018-01-24T04:39:45.039Z,11.28
2018-01-24T04:40:45.003Z,11.34
2018-01-24T04:41:44.985Z,11.28
2018-01-24T04:42:44.946Z,11.26
2018-01-24T04:43:44.929Z,11.28
2018-01-24T04:44:44.913Z,11.38
2018-01-24T04:45:44.895Z,11.33
2018-01-24T04:46:44.868Z,11.30
2018-01-24T04:47:44.831Z,11.31
2018-01-24T04:48:44.802Z,11.28
2018-01-24T04:49:44.788Z,11.31
2018-01-24T04:50:44.763Z,11.34
2018-01-24T04:51:44.770Z,11.35
2018-01-24T04:52:44.710Z,11.31
2018-01-24T04:53:44.686Z,11.34
2018-01-24T04:54:44.659Z,11.34
2018-01-24T04:55:44.656Z,11.33
2018-01-24T04:56:44.619Z,11.33
2018-01-24T04:57:44.587Z,11.34
2018-01-24T04:58:44.574Z,11.34
2018-01-24T04:59:44.571Z,11.39
2018-01-24T05:00:44.531Z,11.38
2018-01-24T05:01:44.489Z,11.35
2018-01-24T05:02:44.469Z,11.33
2018-01-24T05:03:44.442Z,11.34
2018-01-24T05:04:44.423Z,11.33
2018-01-24T05:05:44.400Z,11.26
2018-01-24T05:06:44.371Z,11.28
2018-01-24T05:07:44.339Z,11.31
2018-01-24T05:08:44.335Z,11.15
2018-01-24T05:09:44.308Z,11.27
2018-01-24T05:10:44.277Z,11.27
2018-01-24T05:11:44.246Z,11.21
2018-01-24T05:12:44.224Z,11.18
2018-01-24T05:13:44.203Z,11.15
2018-01-24T05:14:44.184Z,11.16
2018-01-24T05:15:44.160Z,11.27
2018-01-24T05:16:44.129Z,11.30
2018-01-24T05:17:44.116Z,11.18
2018-01-24T05:18:44.093Z,11.24
2018-01-24T05:19:45.474Z,11.21
2018-01-24T05:20:45.351Z,11.24
2018-01-24T05:21:44.586Z,11.27
2018-01-24T05:22:44.002Z,11.20
2018-01-24T05:23:43.958Z,11.24
2018-01-24T05:24:43.932Z,11.18
2018-01-24T05:25:43.912Z,11.27
2018-01-24T05:26:43.934Z,11.26
2018-01-24T05:27:43.890Z,11.20
2018-01-24T05:28:43.839Z,11.21
2018-01-24T05:29:43.831Z,11.21
2018-01-24T05:30:43.805Z,11.21
2018-01-24T05:31:43.793Z,11.15
2018-01-24T05:32:43.745Z,11.26
2018-01-24T05:33:43.726Z,11.13
2018-01-24T05:34:43.695Z,11.20
2018-01-24T05:35:43.671Z,11.12
2018-01-24T05:36:43.649Z,11.15
2018-01-24T05:37:43.645Z,11.20
2018-01-24T05:38:43.612Z,11.16
2018-01-24T05:39:43.576Z,11.16
2018-01-24T05:40:43.551Z,11.08
2018-01-24T05:41:43.521Z,11.02
2018-01-24T05:42:43.505Z,11.08
2018-01-24T05:43:43.483Z,11.10
2018-01-24T05:44:43.454Z,11.16
2018-01-24T05:45:43.436Z,11.15
2018-01-24T05:46:43.412Z,11.10
2018-01-24T05:47:43.381Z,11.09
2018-01-24T05:48:43.369Z,11.12
2018-01-24T05:49:43.331Z,11.15
2018-01-24T05:50:43.317Z,11.10
2018-01-24T05:51:43.286Z,11.13
2018-01-24T05:52:43.291Z,11.12
2018-01-24T05:53:43.243Z,11.08
2018-01-24T05:54:43.211Z,10.98
2018-01-24T05:55:43.238Z,11.02
2018-01-24T05:56:43.170Z,11.02
2018-01-24T05:57:43.151Z,11.12
2018-01-24T05:58:43.114Z,11.06
2018-01-24T05:59:43.103Z,11.10
2018-01-24T06:00:43.071Z,11.06
2018-01-24T06:01:43.044Z,11.15
2018-01-24T06:02:43.025Z,11.12
2018-01-24T06:03:43.012Z,10.98
2018-01-24T06:04:42.980Z,11.00
2018-01-24T06:05:42.944Z,10.95
2018-01-24T06:06:42.946Z,10.97
2018-01-24T06:07:42.898Z,10.95
2018-01-24T06:08:42.875Z,10.91
2018-01-24T06:09:42.847Z,11.02
2018-01-24T06:10:42.842Z,10.94
2018-01-24T06:11:42.802Z,10.95
2018-01-24T06:12:42.780Z,10.92
2018-01-24T06:13:42.760Z,10.95
2018-01-24T06:14:42.733Z,11.02
2018-01-24T06:15:42.705Z,10.97
2018-01-24T06:16:42.684Z,11.00
2018-01-24T06:17:42.651Z,10.97
2018-01-24T06:18:42.631Z,10.94
2018-01-24T06:19:42.606Z,11.06
2018-01-24T06:20:42.582Z,10.95
2018-01-24T06:21:42.555Z,10.98
2018-01-24T06:22:42.537Z,10.97
2018-01-24T06:23:42.514Z,11.03
2018-01-24T06:24:42.493Z,11.08
2018-01-24T06:25:42.463Z,11.00
2018-01-24T06:26:42.459Z,11.03
2018-01-24T06:27:42.416Z,11.03
2018-01-24T06:28:42.394Z,11.05
2018-01-24T06:29:42.366Z,11.00
2018-01-24T06:30:42.340Z,11.05
2018-01-24T06:31:42.316Z,11.09
2018-01-24T06:32:42.289Z,11.09
2018-01-24T06:33:42.293Z,11.18
2018-01-24T06:34:42.274Z,11.23
2018-01-24T06:35:42.240Z,11.20
2018-01-24T06:36:42.196Z,11.28
2018-01-24T06:37:42.171Z,11.23
2018-01-24T06:38:42.147Z,11.23
2018-01-24T06:39:42.129Z,11.18
2018-01-24T06:40:42.100Z,11.21
2018-01-24T06:41:42.086Z,11.34
2018-01-24T06:42:42.055Z,11.28
2018-01-24T06:43:42.029Z,11.30
2018-01-24T06:44:42.003Z,11.31
2018-01-24T06:45:41.979Z,11.46
2018-01-24T06:46:41.955Z,11.38
2018-01-24T06:47:41.928Z,11.43
2018-01-24T06:48:41.904Z,11.45
2018-01-24T06:49:41.884Z,11.42
2018-01-24T06:50:41.864Z,11.42
2018-01-24T06:51:41.828Z,11.42
2018-01-24T06:52:41.809Z,11.43
2018-01-24T06:53:41.784Z,11.48
2018-01-24T06:54:41.753Z,11.45
2018-01-24T06:55:41.736Z,11.49
2018-01-24T06:56:41.706Z,11.49
2018-01-24T06:57:41.685Z,11.53
2018-01-24T06:58:41.665Z,11.56
2018-01-24T06:59:41.633Z,11.53
2018-01-24T07:00:41.624Z,11.56
2018-01-24T07:01:41.605Z,11.56
2018-01-24T07:02:41.565Z,11.60
2018-01-24T07:03:41.537Z,11.59
2018-01-24T07:04:41.511Z,11.59
2018-01-24T07:05:41.495Z,11.53
2018-01-24T07:06:41.470Z,11.56
2018-01-24T07:07:41.455Z,11.71
2018-01-24T07:08:41.423Z,11.67
2018-01-24T07:09:41.400Z,11.68
2018-01-24T07:10:41.385Z,11.57
2018-01-24T07:11:41.347Z,11.63
2018-01-24T07:12:41.322Z,11.67
2018-01-24T07:13:41.294Z,11.64
2018-01-24T07:14:41.270Z,11.66
2018-01-24T07:15:41.252Z,11.63
2018-01-24T07:16:41.233Z,11.67
2018-01-24T07:17:41.200Z,11.71
2018-01-24T07:18:41.180Z,11.68
2018-01-24T07:19:41.156Z,11.68
2018-01-24T07:20:41.131Z,11.71
2018-01-24T07:21:41.108Z,11.75
2018-01-24T07:22:41.140Z,11.75
2018-01-24T07:23:41.056Z,11.81
2018-01-24T07:24:41.035Z,11.73
2018-01-24T07:25:41.893Z,11.76
2018-01-24T07:26:40.991Z,11.79
2018-01-24T07:27:40.966Z,11.81
2018-01-24T07:28:40.987Z,11.78
2018-01-24T07:29:40.916Z,11.76
2018-01-24T07:30:40.890Z,11.85
2018-01-24T07:31:40.861Z,11.94
2018-01-24T07:32:40.841Z,11.95
2018-01-24T07:33:40.813Z,12.04
2018-01-24T07:34:40.794Z,12.01
2018-01-24T07:35:40.768Z,12.10
2018-01-24T07:36:40.740Z,12.13
2018-01-24T07:37:40.718Z,12.19
2018-01-24T07:38:40.702Z,12.16
2018-01-24T07:39:40.684Z,12.10
2018-01-24T07:40:40.654Z,12.04
2018-01-24T07:41:40.640Z,12.08
2018-01-24T07:42:40.601Z,12.11
2018-01-24T07:43:40.578Z,12.11
2018-01-24T07:44:40.560Z,12.07
2018-01-24T07:45:40.544Z,12.11
2018-01-24T07:46:40.509Z,12.01
2018-01-24T07:47:40.484Z,12.08
2018-01-24T07:48:40.458Z,12.11
2018-01-24T07:49:40.437Z,12.08
2018-01-24T07:50:40.408Z,12.11
2018-01-24T07:51:40.388Z,12.10
2018-01-24T07:52:40.373Z,12.08
2018-01-24T07:53:40.339Z,12.11
2018-01-24T07:54:40.323Z,12.15
2018-01-24T07:55:40.301Z,12.11
2018-01-24T07:56:40.268Z,12.08
2018-01-24T07:57:40.248Z,12.11
2018-01-24T07:58:40.239Z,12.20
2018-01-24T07:59:40.209Z,12.15
2018-01-24T08:00:40.178Z,12.26
2018-01-24T08:01:40.161Z,12.18
2018-01-24T08:02:40.163Z,12.19
2018-01-24T08:03:40.098Z,12.20
2018-01-24T08:04:40.083Z,12.23
2018-01-24T08:05:40.056Z,12.23
2018-01-24T08:06:40.039Z,12.22
2018-01-24T08:07:40.022Z,12.28
2018-01-24T08:08:39.998Z,12.22
2018-01-24T08:09:39.958Z,12.20
2018-01-24T08:10:39.952Z,12.20
2018-01-24T08:11:39.912Z,12.26
2018-01-24T08:12:39.888Z,12.23
2018-01-24T08:13:39.863Z,12.28
2018-01-24T08:14:39.841Z,12.26
2018-01-24T08:15:39.827Z,12.23
2018-01-24T08:16:39.791Z,12.22
2018-01-24T08:17:39.765Z,12.20
2018-01-24T08:18:39.755Z,12.26
2018-01-24T08:19:40.033Z,12.23
2018-01-24T08:20:39.709Z,12.26
2018-01-24T08:21:39.674Z,12.26
2018-01-24T08:22:39.645Z,12.19
2018-01-24T08:23:39.623Z,12.20
2018-01-24T08:24:39.600Z,12.31
2018-01-24T08:25:39.584Z,12.22
2018-01-24T08:26:39.553Z,12.29
2018-01-24T08:27:39.521Z,12.29
2018-01-24T08:28:39.502Z,12.28
2018-01-24T08:29:39.474Z,12.36
2018-01-24T08:30:39.492Z,12.26
2018-01-24T08:31:39.599Z,12.36
2018-01-24T08:32:39.402Z,12.41
2018-01-24T08:33:39.381Z,12.41
2018-01-24T08:34:39.395Z,12.40
2018-01-24T08:35:39.350Z,12.41
2018-01-24T08:36:39.315Z,12.44
2018-01-24T08:37:39.288Z,12.44
2018-01-24T08:38:39.296Z,12.43
2018-01-24T08:39:39.241Z,12.38
2018-01-24T08:40:39.218Z,12.43
2018-01-24T08:41:39.196Z,12.47
2018-01-24T08:42:39.169Z,12.43
2018-01-24T08:43:39.173Z,12.61
2018-01-24T08:44:39.133Z,12.47
2018-01-24T08:45:39.100Z,12.58
2018-01-24T08:46:39.077Z,12.48
2018-01-24T08:47:39.066Z,12.51
2018-01-24T08:48:39.119Z,12.51
2018-01-24T08:49:39.812Z,12.43
2018-01-24T08:50:38.995Z,12.44
2018-01-24T08:51:38.965Z,12.48
2018-01-24T08:52:38.935Z,12.51
2018-01-24T08:53:38.973Z,12.56
2018-01-24T08:54:38.890Z,12.70
2018-01-24T08:55:38.863Z,12.71
2018-01-24T08:56:38.839Z,12.78
2018-01-24T08:57:38.834Z,12.73
2018-01-24T08:58:38.809Z,12.80
2018-01-24T08:59:38.794Z,12.91
2018-01-24T09:00:38.748Z,12.95
2018-01-24T09:01:38.721Z,12.88
2018-01-24T09:02:38.704Z,12.84
2018-01-24T09:03:38.687Z,12.89
2018-01-24T09:04:38.645Z,12.95
2018-01-24T09:05:38.635Z,12.98
2018-01-24T09:06:38.610Z,12.99
2018-01-24T09:07:38.574Z,12.98
2018-01-24T09:08:38.551Z,12.91
2018-01-24T09:09:38.535Z,12.95
2018-01-24T09:10:38.508Z,12.89
2018-01-24T09:11:38.480Z,12.86
2018-01-24T09:12:38.463Z,12.88
2018-01-24T09:13:38.440Z,12.89
2018-01-24T09:14:38.417Z,12.83
2018-01-24T09:15:38.400Z,12.84
2018-01-24T09:16:38.364Z,12.84
2018-01-24T09:17:38.353Z,12.73
2018-01-24T09:18:38.325Z,12.71
2018-01-24T09:19:38.296Z,12.74
2018-01-24T09:20:38.284Z,12.81
2018-01-24T09:21:38.247Z,12.86
2018-01-24T09:22:38.227Z,12.78
2018-01-24T09:23:38.216Z,12.83
2018-01-24T09:24:38.190Z,12.89
2018-01-24T09:25:38.154Z,12.89
2018-01-24T09:26:38.132Z,12.94
2018-01-24T09:27:38.110Z,13.02
2018-01-24T09:28:38.086Z,13.09
2018-01-24T09:29:38.064Z,13.17
2018-01-24T09:30:38.037Z,13.29
2018-01-24T09:31:38.022Z,13.32
2018-01-24T09:32:37.993Z,13.37
2018-01-24T09:33:38.004Z,13.42
2018-01-24T09:34:37.965Z,13.39
2018-01-24T09:35:37.928Z,13.35
2018-01-24T09:36:37.898Z,13.37
2018-01-24T09:37:37.879Z,13.35
2018-01-24T09:38:37.862Z,13.31
2018-01-24T09:39:37.848Z,13.32
2018-01-24T09:40:37.823Z,13.35
2018-01-24T09:41:37.784Z,13.40
2018-01-24T09:42:37.758Z,13.39
2018-01-24T09:43:37.758Z,13.42
2018-01-24T09:44:37.717Z,13.36
2018-01-24T09:45:37.690Z,13.27
2018-01-24T09:46:37.711Z,13.21
2018-01-24T09:47:37.644Z,13.28
2018-01-24T09:48:37.622Z,13.09
2018-01-24T09:49:37.607Z,13.16
2018-01-24T09:50:37.606Z,13.24
2018-01-24T09:51:37.561Z,13.31
2018-01-24T09:52:37.549Z,13.31
2018-01-24T09:53:37.511Z,13.37
2018-01-24T09:54:37.487Z,13.42
2018-01-24T09:55:37.457Z,13.39
2018-01-24T09:56:37.446Z,13.42
2018-01-24T09:57:37.411Z,13.40
2018-01-24T09:58:37.390Z,13.44
2018-01-24T09:59:37.405Z,13.44
2018-01-24T10:00:37.343Z,13.48
2018-01-24T10:01:37.324Z,13.40
2018-01-24T10:02:37.305Z,13.55
2018-01-24T10:03:37.299Z,13.55
2018-01-24T10:04:37.253Z,13.55
2018-01-24T10:05:37.226Z,13.57
2018-01-24T10:06:37.220Z,13.53
2018-01-24T10:07:37.194Z,13.54
2018-01-24T10:08:37.159Z,13.51
2018-01-24T10:09:37.140Z,13.58
2018-01-24T10:10:37.119Z,13.53
2018-01-24T10:11:37.095Z,13.51
2018-01-24T10:12:37.074Z,13.48
2018-01-24T10:13:37.053Z,13.47
2018-01-24T10:14:37.039Z,13.50
2018-01-24T10:15:36.993Z,13.53
2018-01-24T10:16:36.975Z,13.39
2018-01-24T10:17:36.951Z,13.42
2018-01-24T10:18:36.932Z,13.55
2018-01-24T10:19:36.903Z,13.63
2018-01-24T10:20:36.884Z,13.65
2018-01-24T10:21:36.858Z,13.70
2018-01-24T10:22:36.837Z,13.78
2018-01-24T10:23:36.821Z,13.70
2018-01-24T10:24:36.813Z,13.70
2018-01-24T10:25:36.769Z,13.69
2018-01-24T10:26:36.742Z,13.75
2018-01-24T10:27:36.725Z,13.72
2018-01-24T10:28:36.699Z,13.69
2018-01-24T10:29:36.727Z,13.65
2018-01-24T10:30:36.650Z,13.69
2018-01-24T10:31:36.644Z,13.68
2018-01-24T10:32:36.609Z,13.62
2018-01-24T10:33:36.584Z,13.65
2018-01-24T10:34:36.561Z,13.69
2018-01-24T10:35:36.540Z,13.68
2018-01-24T10:36:36.525Z,13.79
2018-01-24T10:37:36.504Z,13.75
2018-01-24T10:38:36.457Z,13.70
2018-01-24T10:39:36.452Z,13.88
2018-01-24T10:40:36.419Z,13.75
2018-01-24T10:41:36.398Z,13.91
2018-01-24T10:42:36.385Z,13.79
2018-01-24T10:43:36.351Z,13.90
2018-01-24T10:44:36.336Z,13.86
2018-01-24T10:45:36.318Z,13.87
2018-01-24T10:46:36.304Z,13.86
2018-01-24T10:47:36.258Z,14.08
2018-01-24T10:48:36.248Z,13.90
2018-01-24T10:49:36.215Z,13.81
2018-01-24T10:50:36.191Z,13.94
2018-01-24T10:51:37.817Z,13.97
2018-01-24T10:52:36.647Z,14.02
2018-01-24T10:53:37.448Z,14.12
2018-01-24T10:54:37.421Z,14.01
2018-01-24T10:55:36.601Z,14.11
2018-01-24T10:56:37.525Z,14.13
2018-01-24T10:57:36.415Z,14.08
2018-01-24T10:58:37.295Z,14.13
2018-01-24T10:59:37.292Z,14.27
2018-01-24T11:00:37.478Z,14.20
2018-01-24T11:01:36.571Z,14.16
2018-01-24T11:02:37.367Z,14.21
2018-01-24T11:03:37.012Z,14.31
2018-01-24T11:04:36.466Z,14.44
2018-01-24T11:05:35.900Z,14.38
2018-01-24T11:06:35.840Z,14.36
2018-01-24T11:07:35.803Z,14.42
2018-01-24T11:08:35.778Z,14.41
2018-01-24T11:09:35.763Z,14.31
2018-01-24T11:10:35.753Z,14.45
2018-01-24T11:11:35.715Z,14.33
2018-01-24T11:12:35.705Z,14.28
2018-01-24T11:13:35.676Z,14.39
2018-01-24T11:14:35.645Z,14.39
2018-01-24T11:15:35.621Z,14.38
2018-01-24T11:16:35.618Z,14.45
2018-01-24T11:17:35.578Z,14.45
2018-01-24T11:18:35.562Z,14.46
2018-01-24T11:19:35.534Z,14.44
2018-01-24T11:20:35.512Z,14.45
2018-01-24T11:21:35.491Z,14.49
2018-01-24T11:22:35.472Z,14.46
2018-01-24T11:23:35.447Z,14.42
2018-01-24T11:24:35.422Z,14.46
2018-01-24T11:25:35.405Z,14.49
2018-01-24T11:26:35.389Z,14.49
2018-01-24T11:27:35.363Z,14.39
2018-01-24T11:28:35.324Z,14.42
2018-01-24T11:29:35.360Z,14.45
2018-01-24T11:30:35.285Z,14.49
2018-01-24T11:31:35.265Z,14.36
2018-01-24T11:32:35.233Z,14.44
2018-01-24T11:33:35.222Z,14.51
2018-01-24T11:34:35.211Z,14.45
2018-01-24T11:35:35.169Z,14.53
2018-01-24T11:36:35.149Z,14.44
2018-01-24T11:37:35.138Z,14.48
2018-01-24T11:38:35.112Z,14.42
2018-01-24T11:39:35.136Z,14.45
2018-01-24T11:40:35.064Z,14.42
2018-01-24T11:41:35.032Z,14.42
2018-01-24T11:42:35.020Z,14.44
2018-01-24T11:43:34.999Z,14.46
2018-01-24T11:44:34.996Z,14.39
2018-01-24T11:45:34.942Z,14.57
2018-01-24T11:46:34.920Z,14.44
2018-01-24T11:47:34.909Z,14.39
2018-01-24T11:48:34.915Z,14.44
2018-01-24T11:49:34.857Z,14.41
2018-01-24T11:50:34.842Z,14.46
2018-01-24T11:51:34.828Z,14.42
2018-01-24T11:52:34.779Z,14.38
2018-01-24T11:53:34.777Z,14.38
2018-01-24T11:54:34.740Z,14.41
2018-01-24T11:55:34.714Z,14.44
2018-01-24T11:56:34.717Z,14.36
2018-01-24T11:57:34.694Z,14.34
2018-01-24T11:58:34.657Z,14.39
2018-01-24T11:59:34.643Z,14.44
2018-01-24T12:00:34.606Z,14.38
2018-01-24T12:01:34.589Z,14.41
2018-01-24T12:02:34.561Z,14.41
2018-01-24T12:03:34.542Z,14.41
2018-01-24T12:04:34.532Z,14.45
2018-01-24T12:05:34.492Z,14.39
2018-01-24T12:06:34.475Z,14.42
2018-01-24T12:07:34.445Z,14.44
2018-01-24T12:08:34.428Z,14.48
2018-01-24T12:09:34.419Z,14.33
2018-01-24T12:10:34.389Z,14.44
2018-01-24T12:11:34.369Z,14.42
2018-01-24T12:12:34.333Z,14.41
2018-01-24T12:13:34.376Z,14.26
2018-01-24T12:14:34.298Z,14.36
2018-01-24T12:15:34.283Z,14.28
2018-01-24T12:16:34.246Z,14.28
2018-01-24T12:17:34.245Z,14.31
2018-01-24T12:18:34.205Z,14.41
2018-01-24T12:19:34.187Z,14.46
2018-01-24T12:20:34.151Z,14.44
2018-01-24T12:21:34.140Z,14.31
2018-01-24T12:22:34.120Z,14.36
2018-01-24T12:23:34.083Z,14.41
2018-01-24T12:24:37.273Z,14.36
2018-01-24T12:25:34.048Z,14.39
2018-01-24T12:26:34.047Z,14.41
2018-01-24T12:27:34.044Z,14.41
2018-01-24T12:28:33.969Z,14.45
2018-01-24T12:29:33.963Z,14.44
2018-01-24T12:30:33.949Z,14.34
2018-01-24T12:31:33.911Z,14.36
2018-01-24T12:32:33.883Z,14.39
2018-01-24T12:33:33.867Z,14.44
2018-01-24T12:34:33.874Z,14.39
2018-01-24T12:35:33.814Z,14.44
2018-01-24T12:36:33.789Z,14.42
2018-01-24T12:37:33.771Z,14.41
2018-01-24T12:38:33.763Z,14.38
2018-01-24T12:39:33.719Z,14.41
2018-01-24T12:40:33.711Z,14.44
2018-01-24T12:41:33.683Z,14.44
2018-01-24T12:42:33.669Z,14.39
2018-01-24T12:43:33.634Z,14.38
2018-01-24T12:44:33.610Z,14.34
2018-01-24T12:45:33.606Z,14.41
2018-01-24T12:46:33.580Z,14.31
2018-01-24T12:47:33.570Z,14.28
2018-01-24T12:48:33.525Z,14.36
2018-01-24T12:49:33.501Z,14.28
2018-01-24T12:50:33.479Z,14.30
2018-01-24T12:51:33.461Z,14.30
2018-01-24T12:52:33.426Z,14.36
2018-01-24T12:53:33.414Z,14.33
2018-01-24T12:54:33.408Z,14.30
2018-01-24T12:55:33.360Z,14.30